AFL1993 URSS-UWLL
Flight info
| Callsign | AFL1993 |
|---|---|
| Flight time | 1h 48m |
| Altitude | 34000 |
| Route | ADNET1S ADNET W79 NZ B145 NOBLO/K0795F360 B145 ER G128 ST G900 OBABI/K0802F350 G900 KR P135 DAFOS T789 NEPNI NEPNI1E |
| Aircraft | A320/M-SDE3FGHIRWY/LB1 |
Departure
| Time | 2026-04-30 19:40 |
|---|---|
| Airport | Sochi International Airport (URSS) |
Arrival
| Time | 2026-04-30 21:29 |
|---|---|
| Airport | Ulyanovsk Baratayevka Airport (UWLL) |
| Time | Latitude | Longitude | Altitude | Speed | Heading |
|---|---|---|---|---|---|
| 2026-04-30 19:07 | 43.44753 | 39.94180 | 75 ft | 0 kts | 335° |
| 2026-04-30 19:30 | 43.44729 | 39.94195 | 71 ft | 2 kts | 335° |
| 2026-04-30 19:31 | 43.44699 | 39.94214 | 69 ft | 2 kts | 335° |
| 2026-04-30 19:31 | 43.44683 | 39.94224 | 69 ft | 2 kts | 335° |
| 2026-04-30 19:31 | 43.44652 | 39.94241 | 68 ft | 2 kts | 17° |
| 2026-04-30 19:32 | 43.44641 | 39.94230 | 64 ft | 0 kts | 64° |
| 2026-04-30 19:34 | 43.44663 | 39.94315 | 70 ft | 9 kts | 68° |
| 2026-04-30 19:35 | 43.44682 | 39.94372 | 71 ft | 6 kts | 65° |
| 2026-04-30 19:35 | 43.44698 | 39.94419 | 67 ft | 5 kts | 65° |
| 2026-04-30 19:35 | 43.44713 | 39.94464 | 66 ft | 9 kts | 64° |
| 2026-04-30 19:35 | 43.44741 | 39.94546 | 66 ft | 8 kts | 65° |
| 2026-04-30 19:36 | 43.44763 | 39.94611 | 70 ft | 7 kts | 65° |
| 2026-04-30 19:36 | 43.44784 | 39.94673 | 69 ft | 11 kts | 65° |
| 2026-04-30 19:36 | 43.44864 | 39.94905 | 75 ft | 13 kts | 65° |
| 2026-04-30 19:37 | 43.44896 | 39.94999 | 83 ft | 9 kts | 65° |
| 2026-04-30 19:37 | 43.44917 | 39.95062 | 83 ft | 5 kts | 65° |
| 2026-04-30 19:37 | 43.44936 | 39.95110 | 85 ft | 12 kts | 60° |
| 2026-04-30 19:37 | 43.44974 | 39.95218 | 87 ft | 11 kts | 64° |
| 2026-04-30 19:38 | 43.44994 | 39.95289 | 87 ft | 5 kts | 82° |
| 2026-04-30 19:38 | 43.44960 | 39.95351 | 89 ft | 10 kts | 151° |
| 2026-04-30 19:38 | 43.44913 | 39.95371 | 88 ft | 6 kts | 188° |
| 2026-04-30 19:38 | 43.44885 | 39.95327 | 86 ft | 6 kts | 245° |
| 2026-04-30 19:39 | 43.44881 | 39.95314 | 88 ft | 1 kts | 245° |
| 2026-04-30 19:39 | 43.44877 | 39.95304 | 86 ft | 3 kts | 245° |
| 2026-04-30 19:39 | 43.44863 | 39.95262 | 84 ft | 8 kts | 245° |
| 2026-04-30 19:39 | 43.44759 | 39.94958 | 70 ft | 74 kts | 244° |
| 2026-04-30 19:40 | 43.44445 | 39.94035 | 68 ft | 137 kts | 245° |
| 2026-04-30 19:40 | 43.43997 | 39.92686 | 380 ft | 157 kts | 246° |
| 2026-04-30 19:40 | 43.43580 | 39.91291 | 1025 ft | 160 kts | 251° |
| 2026-04-30 19:40 | 43.43292 | 39.89814 | 1679 ft | 160 kts | 259° |
| 2026-04-30 19:41 | 43.43170 | 39.88292 | 2311 ft | 161 kts | 268° |
| 2026-04-30 19:41 | 43.43238 | 39.86752 | 2918 ft | 161 kts | 278° |
| 2026-04-30 19:41 | 43.43500 | 39.85236 | 3446 ft | 169 kts | 287° |
| 2026-04-30 19:41 | 43.44000 | 39.83655 | 3727 ft | 192 kts | 298° |
| 2026-04-30 19:42 | 43.44811 | 39.82046 | 3996 ft | 218 kts | 307° |
| 2026-04-30 19:42 | 43.45794 | 39.80305 | 4353 ft | 242 kts | 307° |
| 2026-04-30 19:42 | 43.46878 | 39.78385 | 4778 ft | 267 kts | 307° |
| 2026-04-30 19:42 | 43.48053 | 39.76305 | 5417 ft | 280 kts | 306° |
| 2026-04-30 19:43 | 43.49263 | 39.74161 | 6276 ft | 286 kts | 306° |
| 2026-04-30 19:43 | 43.50495 | 39.71976 | 7155 ft | 290 kts | 305° |
| 2026-04-30 19:43 | 43.51726 | 39.69789 | 8162 ft | 288 kts | 304° |
| 2026-04-30 19:44 | 43.54162 | 39.65463 | 10205 ft | 285 kts | 303° |
| 2026-04-30 19:44 | 43.55414 | 39.63226 | 10580 ft | 306 kts | 303° |
| 2026-04-30 19:44 | 43.56743 | 39.60840 | 11096 ft | 318 kts | 303° |
| 2026-04-30 19:44 | 43.58103 | 39.58409 | 11862 ft | 322 kts | 303° |
| 2026-04-30 19:45 | 43.59478 | 39.55951 | 12692 ft | 324 kts | 303° |
| 2026-04-30 19:45 | 43.60968 | 39.53592 | 13500 ft | 332 kts | 313° |
| 2026-04-30 19:45 | 43.62936 | 39.51836 | 14250 ft | 345 kts | 331° |
| 2026-04-30 19:45 | 43.65295 | 39.50981 | 14928 ft | 359 kts | 349° |
| 2026-04-30 19:46 | 43.67825 | 39.51222 | 15611 ft | 373 kts | 9° |
| 2026-04-30 19:46 | 43.70327 | 39.52330 | 16282 ft | 380 kts | 14° |
| 2026-04-30 19:46 | 43.72838 | 39.53520 | 16932 ft | 383 kts | 14° |
| 2026-04-30 19:46 | 43.75366 | 39.54726 | 17571 ft | 387 kts | 14° |
| 2026-04-30 19:47 | 43.77925 | 39.55946 | 18227 ft | 391 kts | 14° |
| 2026-04-30 19:47 | 43.79634 | 39.56757 | 18604 ft | 393 kts | 13° |
| 2026-04-30 19:47 | 43.83090 | 39.58346 | 19337 ft | 396 kts | 12° |
| 2026-04-30 19:47 | 43.85745 | 39.59414 | 19908 ft | 398 kts | 9° |
| 2026-04-30 19:48 | 43.88431 | 39.60397 | 20494 ft | 400 kts | 8° |
| 2026-04-30 19:48 | 43.91143 | 39.61349 | 21054 ft | 404 kts | 8° |
| 2026-04-30 19:48 | 43.93878 | 39.62306 | 21637 ft | 407 kts | 7° |
| 2026-04-30 19:48 | 43.96637 | 39.63288 | 22205 ft | 411 kts | 8° |
| 2026-04-30 19:49 | 43.99408 | 39.64295 | 22734 ft | 413 kts | 8° |
| 2026-04-30 19:49 | 44.05011 | 39.66394 | 23769 ft | 421 kts | 8° |
| 2026-04-30 19:49 | 44.07845 | 39.67473 | 24246 ft | 424 kts | 8° |
| 2026-04-30 19:50 | 44.10695 | 39.68556 | 24703 ft | 425 kts | 8° |
| 2026-04-30 19:50 | 44.13558 | 39.69640 | 25179 ft | 427 kts | 8° |
| 2026-04-30 19:50 | 44.16429 | 39.70720 | 25675 ft | 428 kts | 7° |
| 2026-04-30 19:50 | 44.19312 | 39.71802 | 26119 ft | 430 kts | 7° |
| 2026-04-30 19:51 | 44.22210 | 39.72887 | 26556 ft | 432 kts | 7° |
| 2026-04-30 19:51 | 44.25119 | 39.73980 | 26951 ft | 434 kts | 7° |
| 2026-04-30 19:51 | 44.28043 | 39.75083 | 27350 ft | 436 kts | 7° |
| 2026-04-30 19:51 | 44.30975 | 39.76192 | 27748 ft | 438 kts | 7° |
| 2026-04-30 19:52 | 44.33921 | 39.77309 | 28137 ft | 440 kts | 7° |
| 2026-04-30 19:52 | 44.36879 | 39.78437 | 28555 ft | 441 kts | 7° |
| 2026-04-30 19:52 | 44.39841 | 39.79567 | 28942 ft | 443 kts | 7° |
| 2026-04-30 19:52 | 44.42821 | 39.80701 | 29371 ft | 444 kts | 6° |
| 2026-04-30 19:53 | 44.45812 | 39.81837 | 29735 ft | 446 kts | 6° |
| 2026-04-30 19:53 | 44.48816 | 39.82974 | 30097 ft | 448 kts | 6° |
| 2026-04-30 19:53 | 44.51827 | 39.84113 | 30402 ft | 450 kts | 6° |
| 2026-04-30 19:53 | 44.54857 | 39.85266 | 30676 ft | 452 kts | 6° |
| 2026-04-30 19:54 | 44.57902 | 39.86425 | 30940 ft | 455 kts | 6° |
| 2026-04-30 19:54 | 44.60971 | 39.87595 | 31180 ft | 457 kts | 6° |
| 2026-04-30 19:54 | 44.64007 | 39.88755 | 31389 ft | 460 kts | 6° |
| 2026-04-30 19:54 | 44.67147 | 39.89956 | 31616 ft | 463 kts | 6° |
| 2026-04-30 19:55 | 44.70219 | 39.91133 | 31889 ft | 464 kts | 6° |
| 2026-04-30 19:55 | 44.73373 | 39.92348 | 32194 ft | 465 kts | 6° |
| 2026-04-30 19:55 | 44.76495 | 39.93552 | 32502 ft | 466 kts | 6° |
| 2026-04-30 19:55 | 44.79628 | 39.94758 | 32788 ft | 467 kts | 6° |
| 2026-04-30 19:56 | 44.82722 | 39.95947 | 33090 ft | 468 kts | 5° |
| 2026-04-30 19:56 | 44.85868 | 39.97157 | 33368 ft | 470 kts | 5° |
| 2026-04-30 19:56 | 44.89024 | 39.98375 | 33658 ft | 471 kts | 5° |
| 2026-04-30 19:56 | 44.92185 | 39.99598 | 33950 ft | 472 kts | 5° |
| 2026-04-30 19:57 | 44.95357 | 40.00827 | 34142 ft | 473 kts | 5° |
| 2026-04-30 19:57 | 44.98500 | 40.02056 | 34190 ft | 464 kts | 5° |
| 2026-04-30 19:57 | 45.04681 | 40.04473 | 34180 ft | 459 kts | 5° |
| 2026-04-30 19:58 | 45.10830 | 40.06856 | 34182 ft | 458 kts | 5° |
| 2026-04-30 19:58 | 45.16973 | 40.09246 | 34182 ft | 458 kts | 5° |
| 2026-04-30 19:59 | 45.23114 | 40.11639 | 34176 ft | 457 kts | 5° |
| 2026-04-30 20:00 | 45.32306 | 40.15224 | 34171 ft | 457 kts | 5° |
| 2026-04-30 20:00 | 45.38439 | 40.17633 | 34175 ft | 457 kts | 5° |
| 2026-04-30 20:01 | 45.47628 | 40.21263 | 34183 ft | 457 kts | 5° |
| 2026-04-30 20:01 | 45.53757 | 40.23687 | 34184 ft | 457 kts | 5° |
| 2026-04-30 20:02 | 45.62956 | 40.27344 | 34228 ft | 458 kts | 5° |
| 2026-04-30 20:03 | 45.72118 | 40.30978 | 34207 ft | 458 kts | 5° |
| 2026-04-30 20:03 | 45.78257 | 40.33419 | 34197 ft | 458 kts | 5° |
| 2026-04-30 20:04 | 45.84388 | 40.35866 | 34190 ft | 458 kts | 5° |
| 2026-04-30 20:05 | 45.93591 | 40.39556 | 34180 ft | 458 kts | 5° |
| 2026-04-30 20:05 | 46.02794 | 40.43250 | 34188 ft | 458 kts | 5° |
| 2026-04-30 20:06 | 46.08941 | 40.45738 | 34203 ft | 459 kts | 5° |
| 2026-04-30 20:06 | 46.15092 | 40.48233 | 34193 ft | 459 kts | 5° |
| 2026-04-30 20:07 | 46.20245 | 40.50314 | 34191 ft | 459 kts | 5° |
| 2026-04-30 20:08 | 46.29435 | 40.54044 | 34214 ft | 459 kts | 5° |
| 2026-04-30 20:08 | 46.35587 | 40.56550 | 34202 ft | 459 kts | 5° |
| 2026-04-30 20:09 | 46.41740 | 40.59059 | 34215 ft | 459 kts | 5° |
| 2026-04-30 20:09 | 46.50975 | 40.62822 | 34205 ft | 460 kts | 5° |
| 2026-04-30 20:10 | 46.60217 | 40.66640 | 34199 ft | 460 kts | 6° |
| 2026-04-30 20:11 | 46.69417 | 40.70729 | 34198 ft | 461 kts | 7° |
| 2026-04-30 20:11 | 46.75544 | 40.73522 | 34210 ft | 461 kts | 7° |
| 2026-04-30 20:12 | 46.84728 | 40.77645 | 34223 ft | 460 kts | 7° |
| 2026-04-30 20:13 | 46.90849 | 40.80380 | 34214 ft | 460 kts | 7° |
| 2026-04-30 20:13 | 46.96968 | 40.83143 | 34225 ft | 460 kts | 7° |
| 2026-04-30 20:14 | 47.03084 | 40.85926 | 34224 ft | 460 kts | 7° |
| 2026-04-30 20:14 | 47.09188 | 40.88703 | 34218 ft | 459 kts | 7° |
| 2026-04-30 20:15 | 47.15290 | 40.91474 | 34208 ft | 459 kts | 7° |
| 2026-04-30 20:15 | 47.21349 | 40.94237 | 34247 ft | 459 kts | 8° |
| 2026-04-30 20:16 | 47.27438 | 40.97038 | 34232 ft | 458 kts | 8° |
| 2026-04-30 20:16 | 47.33528 | 40.99832 | 34218 ft | 458 kts | 8° |
| 2026-04-30 20:17 | 47.39613 | 41.02630 | 34207 ft | 458 kts | 8° |
| 2026-04-30 20:17 | 47.45693 | 41.05434 | 34223 ft | 458 kts | 8° |
| 2026-04-30 20:18 | 47.51771 | 41.08247 | 34218 ft | 457 kts | 8° |
| 2026-04-30 20:18 | 47.57829 | 41.11151 | 34211 ft | 462 kts | 13° |
| 2026-04-30 20:19 | 47.63581 | 41.15730 | 34229 ft | 473 kts | 23° |
| 2026-04-30 20:19 | 47.69219 | 41.20753 | 34248 ft | 472 kts | 24° |
| 2026-04-30 20:20 | 47.74846 | 41.25778 | 34225 ft | 472 kts | 24° |
| 2026-04-30 20:20 | 47.80463 | 41.30808 | 34226 ft | 471 kts | 24° |
| 2026-04-30 20:21 | 47.86068 | 41.35848 | 34235 ft | 471 kts | 25° |
| 2026-04-30 20:21 | 47.91658 | 41.40930 | 34223 ft | 470 kts | 25° |
| 2026-04-30 20:22 | 47.97233 | 41.46030 | 34219 ft | 470 kts | 25° |
| 2026-04-30 20:22 | 48.02802 | 41.51134 | 34213 ft | 470 kts | 25° |
| 2026-04-30 20:23 | 48.08382 | 41.56228 | 34209 ft | 470 kts | 25° |
| 2026-04-30 20:23 | 48.13954 | 41.61330 | 34204 ft | 470 kts | 25° |
| 2026-04-30 20:24 | 48.19519 | 41.66464 | 34204 ft | 470 kts | 25° |
| 2026-04-30 20:24 | 48.25087 | 41.71607 | 34229 ft | 470 kts | 26° |
| 2026-04-30 20:25 | 48.33283 | 41.79602 | 34215 ft | 475 kts | 36° |
| 2026-04-30 20:26 | 48.39847 | 41.91137 | 34604 ft | 490 kts | 49° |
| 2026-04-30 20:26 | 48.44009 | 41.99261 | 35217 ft | 489 kts | 49° |
| 2026-04-30 20:26 | 48.46082 | 42.03317 | 35517 ft | 488 kts | 50° |
| 2026-04-30 20:27 | 48.50207 | 42.11418 | 36100 ft | 486 kts | 50° |
| 2026-04-30 20:27 | 48.54310 | 42.19519 | 36203 ft | 485 kts | 50° |
| 2026-04-30 20:28 | 48.62476 | 42.35699 | 36201 ft | 484 kts | 50° |
| 2026-04-30 20:30 | 48.72619 | 42.56002 | 36206 ft | 484 kts | 51° |
| 2026-04-30 20:31 | 48.84629 | 42.80613 | 36193 ft | 484 kts | 52° |
| 2026-04-30 20:32 | 48.94489 | 43.01260 | 36199 ft | 484 kts | 52° |
| 2026-04-30 20:33 | 49.00402 | 43.13700 | 36195 ft | 483 kts | 52° |
| 2026-04-30 20:34 | 49.06301 | 43.26154 | 36199 ft | 482 kts | 52° |
| 2026-04-30 20:35 | 49.12178 | 43.38614 | 36185 ft | 481 kts | 52° |
| 2026-04-30 20:35 | 49.18028 | 43.51073 | 36181 ft | 481 kts | 52° |
| 2026-04-30 20:36 | 49.21912 | 43.59392 | 36181 ft | 481 kts | 53° |
| 2026-04-30 20:36 | 49.26106 | 43.67295 | 36179 ft | 476 kts | 40° |
| 2026-04-30 20:37 | 49.28660 | 43.70477 | 36172 ft | 472 kts | 31° |
| 2026-04-30 20:37 | 49.34212 | 43.75760 | 36166 ft | 470 kts | 28° |
| 2026-04-30 20:38 | 49.39777 | 43.81026 | 36164 ft | 470 kts | 28° |
| 2026-04-30 20:38 | 49.45344 | 43.86314 | 36159 ft | 470 kts | 28° |
| 2026-04-30 20:39 | 49.53652 | 43.94319 | 36154 ft | 471 kts | 30° |
| 2026-04-30 20:40 | 49.61653 | 44.03044 | 36160 ft | 472 kts | 33° |
| 2026-04-30 20:40 | 49.66964 | 44.09003 | 36152 ft | 472 kts | 33° |
| 2026-04-30 20:41 | 49.74996 | 44.17802 | 36141 ft | 471 kts | 32° |
| 2026-04-30 20:41 | 49.80353 | 44.23649 | 35550 ft | 471 kts | 32° |
| 2026-04-30 20:42 | 49.83019 | 44.26576 | 35239 ft | 470 kts | 32° |
| 2026-04-30 20:42 | 49.85687 | 44.29514 | 35115 ft | 470 kts | 32° |
| 2026-04-30 20:43 | 49.93700 | 44.38388 | 35151 ft | 472 kts | 32° |
| 2026-04-30 20:43 | 49.96377 | 44.41353 | 35266 ft | 473 kts | 32° |
| 2026-04-30 20:43 | 49.99055 | 44.44322 | 35551 ft | 473 kts | 32° |
| 2026-04-30 20:44 | 50.04404 | 44.50272 | 36065 ft | 473 kts | 33° |
| 2026-04-30 20:44 | 50.07052 | 44.53224 | 36138 ft | 475 kts | 33° |
| 2026-04-30 20:44 | 50.12426 | 44.59233 | 36551 ft | 476 kts | 33° |
| 2026-04-30 20:45 | 50.17794 | 44.65260 | 37069 ft | 475 kts | 33° |
| 2026-04-30 20:45 | 50.23156 | 44.71291 | 37138 ft | 475 kts | 33° |
| 2026-04-30 20:46 | 50.33870 | 44.83370 | 37132 ft | 475 kts | 33° |
| 2026-04-30 20:47 | 50.41894 | 44.92454 | 37127 ft | 474 kts | 33° |
| 2026-04-30 20:48 | 50.49896 | 45.01576 | 37130 ft | 474 kts | 33° |
| 2026-04-30 20:48 | 50.55227 | 45.07674 | 37126 ft | 474 kts | 33° |
| 2026-04-30 20:49 | 50.60556 | 45.13780 | 37133 ft | 474 kts | 34° |
| 2026-04-30 20:50 | 50.68553 | 45.22964 | 37123 ft | 474 kts | 34° |
| 2026-04-30 20:50 | 50.73875 | 45.29118 | 37122 ft | 474 kts | 34° |
| 2026-04-30 20:51 | 50.79191 | 45.35284 | 37114 ft | 474 kts | 34° |
| 2026-04-30 20:51 | 50.87166 | 45.44549 | 37131 ft | 474 kts | 34° |
| 2026-04-30 20:52 | 50.92406 | 45.50911 | 37117 ft | 474 kts | 36° |
| 2026-04-30 20:53 | 50.99276 | 45.59591 | 37108 ft | 474 kts | 37° |
| 2026-04-30 20:53 | 51.04654 | 45.65572 | 37101 ft | 470 kts | 24° |
| 2026-04-30 20:54 | 51.13523 | 45.72181 | 37092 ft | 469 kts | 22° |
| 2026-04-30 20:55 | 51.22382 | 45.78856 | 37100 ft | 469 kts | 23° |
| 2026-04-30 20:55 | 51.28283 | 45.83325 | 37087 ft | 470 kts | 23° |
| 2026-04-30 20:56 | 51.37145 | 45.90022 | 37080 ft | 470 kts | 23° |
| 2026-04-30 20:57 | 51.46000 | 45.96766 | 37103 ft | 470 kts | 23° |
| 2026-04-30 20:57 | 51.51893 | 46.01254 | 37098 ft | 469 kts | 24° |
| 2026-04-30 20:58 | 51.60721 | 46.08115 | 37079 ft | 469 kts | 25° |
| 2026-04-30 20:58 | 51.66515 | 46.12934 | 37073 ft | 469 kts | 26° |
| 2026-04-30 20:59 | 51.75191 | 46.20219 | 37066 ft | 469 kts | 26° |
| 2026-04-30 21:00 | 51.86810 | 46.29828 | 37060 ft | 469 kts | 26° |
| 2026-04-30 21:01 | 51.95522 | 46.37092 | 37074 ft | 469 kts | 26° |
| 2026-04-30 21:02 | 52.04208 | 46.44384 | 37049 ft | 468 kts | 26° |
| 2026-04-30 21:02 | 52.08893 | 46.48331 | 37050 ft | 468 kts | 26° |
| 2026-04-30 21:03 | 52.12723 | 46.51512 | 37041 ft | 468 kts | 26° |
| 2026-04-30 21:03 | 52.18498 | 46.56395 | 37042 ft | 468 kts | 26° |
| 2026-04-30 21:04 | 52.24262 | 46.61318 | 37031 ft | 468 kts | 26° |
| 2026-04-30 21:04 | 52.32939 | 46.68713 | 37031 ft | 469 kts | 26° |
| 2026-04-30 21:05 | 52.38705 | 46.73609 | 37032 ft | 470 kts | 26° |
| 2026-04-30 21:05 | 52.44499 | 46.78565 | 37032 ft | 470 kts | 26° |
| 2026-04-30 21:06 | 52.50308 | 46.83567 | 36856 ft | 475 kts | 27° |
| 2026-04-30 21:06 | 52.53228 | 46.86084 | 36606 ft | 474 kts | 27° |
| 2026-04-30 21:06 | 52.56138 | 46.88595 | 36362 ft | 472 kts | 27° |
| 2026-04-30 21:07 | 52.59024 | 46.91093 | 35995 ft | 467 kts | 27° |
| 2026-04-30 21:07 | 52.61891 | 46.93573 | 35457 ft | 464 kts | 27° |
| 2026-04-30 21:07 | 52.64740 | 46.96033 | 34932 ft | 461 kts | 27° |
| 2026-04-30 21:07 | 52.67574 | 46.98484 | 34393 ft | 459 kts | 27° |
| 2026-04-30 21:08 | 52.70395 | 47.00926 | 33838 ft | 458 kts | 27° |
| 2026-04-30 21:08 | 52.73206 | 47.03364 | 33274 ft | 454 kts | 27° |
| 2026-04-30 21:08 | 52.75991 | 47.05790 | 32766 ft | 450 kts | 27° |
| 2026-04-30 21:08 | 52.78745 | 47.08203 | 32250 ft | 447 kts | 27° |
| 2026-04-30 21:09 | 52.81478 | 47.10602 | 31740 ft | 443 kts | 27° |
| 2026-04-30 21:09 | 52.84189 | 47.12980 | 31239 ft | 439 kts | 27° |
| 2026-04-30 21:09 | 52.86879 | 47.15341 | 30748 ft | 435 kts | 27° |
| 2026-04-30 21:09 | 52.89539 | 47.17679 | 30272 ft | 432 kts | 27° |
| 2026-04-30 21:10 | 52.92184 | 47.20006 | 29737 ft | 428 kts | 27° |
| 2026-04-30 21:10 | 52.94794 | 47.22301 | 29287 ft | 421 kts | 28° |
| 2026-04-30 21:10 | 52.97367 | 47.24568 | 28834 ft | 415 kts | 29° |
| 2026-04-30 21:10 | 52.99902 | 47.26806 | 28404 ft | 410 kts | 29° |
| 2026-04-30 21:11 | 53.02409 | 47.29021 | 27996 ft | 405 kts | 29° |
| 2026-04-30 21:11 | 53.04892 | 47.31214 | 27522 ft | 402 kts | 29° |
| 2026-04-30 21:11 | 53.07348 | 47.33386 | 27087 ft | 398 kts | 29° |
| 2026-04-30 21:11 | 53.09783 | 47.35541 | 26633 ft | 395 kts | 29° |
| 2026-04-30 21:12 | 53.12201 | 47.37687 | 26179 ft | 392 kts | 30° |
| 2026-04-30 21:12 | 53.14597 | 47.39820 | 25719 ft | 390 kts | 30° |
| 2026-04-30 21:12 | 53.16982 | 47.41948 | 25249 ft | 388 kts | 30° |
| 2026-04-30 21:12 | 53.19352 | 47.44067 | 24769 ft | 386 kts | 30° |
| 2026-04-30 21:13 | 53.21716 | 47.46177 | 24286 ft | 385 kts | 30° |
| 2026-04-30 21:13 | 53.24074 | 47.48279 | 23798 ft | 384 kts | 30° |
| 2026-04-30 21:13 | 53.26431 | 47.50388 | 23255 ft | 384 kts | 30° |
| 2026-04-30 21:13 | 53.28775 | 47.52492 | 22772 ft | 381 kts | 30° |
| 2026-04-30 21:14 | 53.31104 | 47.54577 | 22293 ft | 378 kts | 30° |
| 2026-04-30 21:14 | 53.33421 | 47.56649 | 21822 ft | 376 kts | 30° |
| 2026-04-30 21:14 | 53.35725 | 47.58716 | 21356 ft | 374 kts | 30° |
| 2026-04-30 21:14 | 53.38009 | 47.60776 | 20899 ft | 372 kts | 30° |
| 2026-04-30 21:15 | 53.40285 | 47.62833 | 20441 ft | 371 kts | 30° |
| 2026-04-30 21:15 | 53.42550 | 47.64880 | 19959 ft | 370 kts | 30° |
| 2026-04-30 21:15 | 53.44809 | 47.66920 | 19521 ft | 368 kts | 30° |
| 2026-04-30 21:15 | 53.47061 | 47.68956 | 19071 ft | 367 kts | 29° |
| 2026-04-30 21:16 | 53.49392 | 47.70694 | 18622 ft | 367 kts | 22° |
| 2026-04-30 21:16 | 53.51772 | 47.72261 | 18143 ft | 367 kts | 22° |
| 2026-04-30 21:16 | 53.54143 | 47.73823 | 17677 ft | 365 kts | 22° |
| 2026-04-30 21:16 | 53.56502 | 47.75376 | 17242 ft | 363 kts | 22° |
| 2026-04-30 21:17 | 53.58847 | 47.76921 | 16798 ft | 361 kts | 22° |
| 2026-04-30 21:17 | 53.61180 | 47.78465 | 16369 ft | 359 kts | 22° |
| 2026-04-30 21:17 | 53.63500 | 47.80005 | 15935 ft | 357 kts | 22° |
| 2026-04-30 21:17 | 53.65775 | 47.81522 | 15505 ft | 356 kts | 22° |
| 2026-04-30 21:18 | 53.68071 | 47.83054 | 15097 ft | 354 kts | 22° |
| 2026-04-30 21:18 | 53.70337 | 47.84654 | 14664 ft | 352 kts | 29° |
| 2026-04-30 21:18 | 53.72447 | 47.86707 | 14245 ft | 350 kts | 32° |
| 2026-04-30 21:18 | 53.74545 | 47.88784 | 13808 ft | 349 kts | 32° |
| 2026-04-30 21:19 | 53.76634 | 47.90848 | 13413 ft | 345 kts | 32° |
| 2026-04-30 21:19 | 53.78704 | 47.92893 | 12970 ft | 343 kts | 32° |
| 2026-04-30 21:19 | 53.80758 | 47.94928 | 12521 ft | 341 kts | 32° |
| 2026-04-30 21:19 | 53.82796 | 47.96951 | 12074 ft | 339 kts | 32° |
| 2026-04-30 21:20 | 53.84827 | 47.98968 | 11619 ft | 338 kts | 32° |
| 2026-04-30 21:20 | 53.86852 | 48.00981 | 11176 ft | 336 kts | 32° |
| 2026-04-30 21:20 | 53.88864 | 48.02982 | 10724 ft | 334 kts | 32° |
| 2026-04-30 21:20 | 53.90861 | 48.04970 | 10273 ft | 331 kts | 32° |
| 2026-04-30 21:21 | 53.92803 | 48.06903 | 9811 ft | 316 kts | 32° |
| 2026-04-30 21:21 | 53.94662 | 48.08753 | 9355 ft | 302 kts | 31° |
| 2026-04-30 21:21 | 53.98122 | 48.12217 | 8524 ft | 276 kts | 32° |
| 2026-04-30 21:22 | 53.99739 | 48.13846 | 8130 ft | 264 kts | 32° |
| 2026-04-30 21:22 | 54.04282 | 48.18045 | 6981 ft | 234 kts | 9° |
| 2026-04-30 21:23 | 54.05851 | 48.17740 | 6612 ft | 228 kts | 335° |
| 2026-04-30 21:23 | 54.07044 | 48.16060 | 6187 ft | 224 kts | 302° |
| 2026-04-30 21:23 | 54.08614 | 48.11611 | 5411 ft | 218 kts | 307° |
| 2026-04-30 21:24 | 54.09512 | 48.09523 | 5014 ft | 217 kts | 307° |
| 2026-04-30 21:24 | 54.10542 | 48.07711 | 4598 ft | 210 kts | 333° |
| 2026-04-30 21:24 | 54.11901 | 48.07083 | 4240 ft | 199 kts | 4° |
| 2026-04-30 21:24 | 54.13193 | 48.07667 | 3903 ft | 189 kts | 32° |
| 2026-04-30 21:25 | 54.15420 | 48.10127 | 3063 ft | 192 kts | 35° |
| 2026-04-30 21:25 | 54.16513 | 48.11310 | 2761 ft | 185 kts | 34° |
| 2026-04-30 21:25 | 54.17583 | 48.12456 | 2520 ft | 177 kts | 34° |
| 2026-04-30 21:26 | 54.19519 | 48.14523 | 2034 ft | 149 kts | 35° |
| 2026-04-30 21:26 | 54.20346 | 48.15407 | 1837 ft | 136 kts | 35° |
| 2026-04-30 21:27 | 54.21882 | 48.17052 | 1451 ft | 128 kts | 34° |
| 2026-04-30 21:27 | 54.22631 | 48.17875 | 1248 ft | 129 kts | 33° |
| 2026-04-30 21:27 | 54.23393 | 48.18679 | 1082 ft | 130 kts | 31° |
| 2026-04-30 21:28 | 54.24919 | 48.20292 | 748 ft | 128 kts | 32° |
| 2026-04-30 21:28 | 54.25677 | 48.21114 | 563 ft | 129 kts | 31° |
| 2026-04-30 21:28 | 54.26995 | 48.22532 | 424 ft | 72 kts | 32° |
| 2026-04-30 21:29 | 54.27305 | 48.22866 | 411 ft | 45 kts | 32° |
| 2026-04-30 21:29 | 54.27989 | 48.23601 | 395 ft | 31 kts | 32° |
| 2026-04-30 21:30 | 54.28237 | 48.23870 | 392 ft | 11 kts | 32° |
| 2026-04-30 21:31 | 54.28383 | 48.23636 | 386 ft | 8 kts | 302° |
| 2026-04-30 21:31 | 54.28444 | 48.23471 | 378 ft | 6 kts | 302° |
| 2026-04-30 21:32 | 54.28493 | 48.23329 | 373 ft | 9 kts | 298° |
| 2026-04-30 21:32 | 54.28519 | 48.23244 | 371 ft | 3 kts | 298° |
| 2026-04-30 21:32 | 54.28540 | 48.23222 | 370 ft | 5 kts | 347° |
| 2026-04-30 21:32 | 54.28561 | 48.23251 | 375 ft | 3 kts | 72° |
| 2026-04-30 21:33 | 54.28555 | 48.23281 | 370 ft | 2 kts | 115° |
| 2026-04-30 21:33 | 54.28544 | 48.23313 | 371 ft | 1 kts | 122° |
| 2026-04-30 21:33 | 54.28541 | 48.23320 | 372 ft | 0 kts | 122° |
| 2026-04-30 21:34 | 54.28538 | 48.23327 | 372 ft | 2 kts | 122° |
| 2026-04-30 21:34 | 54.28538 | 48.23328 | 372 ft | 0 kts | 122° |